Time;durP1;ratioP1;P1;durP2;ratioP2;P2;SDS_P1;SDS_P2;PMS_P1;PMS_P2;Temp;Humidity;BMP_temperature;BMP_pressure;BME280_temperature;BME280_humidity;BME280_pressure;Samples;Min_cycle;Max_cycle;Signal;HPM_P1;HPM_P2
2021/08/30 00:01:12;;;;;;;;;4.25;3.25;;;;;18.05;72.49;101751.72;5018437;28;45450;-80
2021/08/30 00:03:38;;;;;;;;;3.50;3.50;;;;;18.07;72.22;101757.81;5036221;28;45469;-79
2021/08/30 00:06:04;;;;;;;;;6.00;4.50;;;;;18.02;72.79;101744.78;5036335;28;45475;-80
2021/08/30 00:08:29;;;;;;;;;3.75;3.75;;;;;18.04;72.39;101742.00;5035643;28;46505;-79
2021/08/30 00:10:54;;;;;;;;;4.25;4.00;;;;;18.09;72.69;101748.78;5035695;28;45521;-80
2021/08/30 00:13:19;;;;;;;;;5.75;4.00;;;;;18.09;72.39;101754.09;5035332;28;45396;-79
2021/08/30 00:15:45;;;;;;;;;5.75;5.75;;;;;18.09;72.62;101751.44;5036864;28;45382;-79
2021/08/30 00:18:10;;;;;;;;;5.50;5.00;;;;;18.05;72.83;101741.91;5034846;28;45508;-80
2021/08/30 00:20:35;;;;;;;;;6.50;5.00;;;;;18.09;72.45;101742.59;5035719;28;45390;-80
2021/08/30 00:23:01;;;;;;;;;4.50;4.25;;;;;18.11;72.45;101743.38;5036203;28;47619;-80
2021/08/30 00:25:26;;;;;;;;;3.75;3.75;;;;;17.91;72.63;101723.28;5035021;28;45482;-79
2021/08/30 00:27:52;;;;;;;;;5.50;5.50;;;;;18.02;72.10;101727.97;5035077;28;46324;-79
2021/08/30 00:30:17;;;;;;;;;6.25;4.00;;;;;18.09;72.32;101738.16;5035219;28;45420;-80
2021/08/30 00:32:42;;;;;;;;;6.25;4.00;;;;;18.07;72.02;101742.72;5035461;28;45511;-80
2021/08/30 00:35:08;;;;;;;;;4.50;4.50;;;;;18.02;72.03;101730.63;5035775;28;45439;-80
2021/08/30 00:37:34;;;;;;;;;7.00;5.00;;;;;17.97;72.10;101726.41;5035327;28;47143;-80
2021/08/30 00:39:59;;;;;;;;;5.00;4.00;;;;;18.03;72.58;101729.66;5035911;28;45360;-80
2021/08/30 00:42:26;;;;;;;;;5.00;5.00;;;;;17.95;72.40;101719.47;5035180;28;45775;-79
2021/08/30 00:44:53;;;;;;;;;6.50;6.00;;;;;17.83;72.36;101691.78;5035046;28;45503;-80
2021/08/30 00:47:19;;;;;;;;;8.50;7.00;;;;;18.00;71.82;101728.88;5033142;28;46052;-79
2021/08/30 00:49:44;;;;;;;;;8.75;6.00;;;;;17.97;72.54;101721.09;5035278;28;45732;-80
2021/08/30 00:52:09;;;;;;;;;9.50;7.00;;;;;17.98;72.60;101722.81;5035556;28;45490;-80
2021/08/30 00:54:35;;;;;;;;;7.50;5.25;;;;;17.99;72.31;101724.50;5034345;28;45356;-80
2021/08/30 00:57:03;;;;;;;;;8.75;7.25;;;;;17.93;72.34;101710.72;5035024;28;45407;-80
2021/08/30 00:59:30;;;;;;;;;7.00;7.00;;;;;17.99;72.55;101721.84;5035600;28;45297;-80
2021/08/30 01:01:55;;;;;;;;;10.25;9.00;;;;;17.98;71.87;101717.50;5035221;28;45416;-80
2021/08/30 01:04:21;;;;;;;;;9.25;6.75;;;;;17.96;72.45;101721.19;5035256;28;45318;-80
2021/08/30 01:07:06;;;;;;;;;10.25;10.25;;;;;17.93;71.91;101718.72;5035547;28;46434;-79
2021/08/30 01:09:40;;;;;;;;;14.00;9.25;;;;;17.92;72.22;101720.50;5034576;28;45601;-80
2021/08/30 01:12:13;;;;;;;;;8.75;7.00;;;;;17.92;72.00;101723.19;5035085;28;45498;-80
2021/08/30 01:14:47;;;;;;;;;8.00;8.00;;;;;17.90;72.79;101719.72;5034580;28;45665;-80
2021/08/30 01:17:15;;;;;;;;;8.50;7.50;;;;;17.72;72.41;101694.19;5034480;28;46558;-78
2021/08/30 01:19:48;;;;;;;;;14.50;11.25;;;;;17.88;72.30;101720.78;5033976;28;45847;-80
2021/08/30 01:22:15;;;;;;;;;15.75;10.00;;;;;17.86;72.55;101712.91;5034306;28;45396;-80
2021/08/30 01:24:41;;;;;;;;;11.00;9.50;;;;;17.83;73.36;101718.38;5034288;28;45548;-80
2021/08/30 01:27:07;;;;;;;;;9.25;8.50;;;;;17.82;73.28;101715.81;5034356;28;45384;-80
2021/08/30 01:29:41;;;;;;;;;8.75;8.75;;;;;17.83;73.30;101712.22;5034652;28;45638;-80
2021/08/30 01:32:17;;;;;;;;;14.25;9.25;;;;;17.77;73.56;101702.78;5035000;28;45482;-81
2021/08/30 01:34:43;;;;;;;;;13.25;10.50;;;;;17.79;73.32;101710.66;5017129;28;45422;-80
2021/08/30 01:37:09;;;;;;;;;14.75;12.25;;;;;17.78;73.66;101712.47;5033466;28;45362;-80
2021/08/30 01:39:35;;;;;;;;;16.75;12.50;;;;;17.79;73.75;101724.81;5016210;28;46195;-79
2021/08/30 01:42:01;;;;;;;;;9.50;8.50;;;;;17.77;74.29;101708.09;5034141;28;45405;-80
2021/08/30 01:44:28;;;;;;;;;15.00;11.00;;;;;17.58;73.96;101683.47;5034547;28;45453;-80
2021/08/30 01:46:55;;;;;;;;;15.00;11.00;;;;;17.73;74.44;101698.59;5033426;28;46372;-79
2021/08/30 01:49:24;;;;;;;;;14.00;12.00;;;;;17.75;74.50;101707.34;5031481;28;45443;-79
2021/08/30 01:51:52;;;;;;;;;15.25;13.75;;;;;17.74;73.98;101701.13;5034652;28;45530;-80
2021/08/30 01:54:19;;;;;;;;;13.25;11.50;;;;;17.65;74.48;101687.53;5034215;28;45553;-80
2021/08/30 01:56:48;;;;;;;;;14.50;11.00;;;;;17.71;74.59;101705.78;5033834;28;45953;-79
2021/08/30 02:02:01;;;;;;;;;18.50;12.50;;;;;17.69;74.97;101702.31;5021805;28;45412;-80
2021/08/30 02:04:26;;;;;;;;;12.50;11.75;;;;;17.67;74.92;101698.91;5034639;28;45571;-80
2021/08/30 02:06:52;;;;;;;;;17.50;14.25;;;;;17.63;75.13;101703.53;5031822;28;45374;-80
2021/08/30 02:09:17;;;;;;;;;17.25;13.00;;;;;17.65;74.77;101700.81;5033828;28;49945;-81
2021/08/30 02:11:43;;;;;;;;;13.00;10.50;;;;;17.64;75.81;101705.25;5034059;28;45498;-81
2021/08/30 02:14:08;;;;;;;;;13.50;10.75;;;;;17.62;75.68;101698.31;5034063;28;45701;-80
2021/08/30 02:16:34;;;;;;;;;14.50;10.75;;;;;17.66;75.55;101706.03;5033288;28;46008;-80
2021/08/30 02:19:18;;;;;;;;;12.75;11.25;;;;;17.68;75.99;101703.28;5034622;28;45676;-80
2021/08/30 02:21:52;;;;;;;;;14.50;10.00;;;;;17.59;75.46;101688.72;5033212;28;45430;-80
2021/08/30 02:24:39;;;;;;;;;12.25;10.50;;;;;17.69;76.21;101704.97;5033750;28;45299;-80
2021/08/30 02:27:27;;;;;;;;;13.00;11.50;;;;;17.70;76.37;101696.94;5033754;28;46574;-80
2021/08/30 02:30:05;;;;;;;;;10.75;10.00;;;;;17.71;76.52;101697.78;5032631;28;45726;-80
2021/08/30 02:32:33;;;;;;;;;10.50;9.75;;;;;17.67;76.31;101688.28;5033627;28;45605;-80
2021/08/30 02:35:01;;;;;;;;;11.25;9.00;;;;;17.70;76.31;101696.94;5033546;28;45595;-80
2021/08/30 02:37:30;;;;;;;;;14.00;10.00;;;;;17.69;76.37;101691.69;5033560;28;45485;-81
2021/08/30 02:39:57;;;;;;;;;11.00;10.00;;;;;17.73;76.36;101695.91;5032819;28;45771;-80
2021/08/30 02:42:23;;;;;;;;;12.00;9.50;;;;;17.74;75.97;101702.94;5033255;28;45431;-80
2021/08/30 02:44:48;;;;;;;;;13.25;11.00;;;;;17.72;76.92;101699.50;5033829;28;45474;-80
2021/08/30 02:47:16;;;;;;;;;9.25;9.25;;;;;17.69;76.09;101689.88;5014594;28;47141;-80
2021/08/30 02:49:44;;;;;;;;;14.00;11.00;;;;;17.72;76.83;101699.50;5031393;28;45467;-81
2021/08/30 02:52:11;;;;;;;;;13.00;10.25;;;;;17.70;76.95;101707.56;5035191;28;45423;-79
2021/08/30 02:54:39;;;;;;;;;13.00;12.00;;;;;17.68;77.09;101701.47;5018350;28;45684;-80
2021/08/30 02:57:06;;;;;;;;;12.50;11.75;;;;;17.68;76.50;101693.50;5036268;28;45489;-80
2021/08/30 02:59:34;;;;;;;;;17.00;13.25;;;;;17.65;76.88;101693.69;5037202;28;45333;-80
2021/08/30 03:02:00;;;;;;;;;14.25;11.25;;;;;17.71;77.10;101709.28;5037300;28;45474;-79
2021/08/30 03:04:27;;;;;;;;;15.00;13.00;;;;;17.72;76.51;101707.47;5036843;28;45402;-79
2021/08/30 03:06:54;;;;;;;;;13.50;11.00;;;;;17.65;77.29;101690.19;5035357;28;45500;-80
2021/08/30 03:09:19;;;;;;;;;10.75;10.75;;;;;17.62;77.40;101682.38;5036955;28;45724;-80
2021/08/30 03:11:48;;;;;;;;;15.25;12.75;;;;;17.73;76.84;101699.44;5036317;28;47974;-80
2021/08/30 03:14:18;;;;;;;;;14.00;11.00;;;;;17.72;77.23;101695.06;5036684;28;45520;-80
2021/08/30 03:16:43;;;;;;;;;14.00;13.75;;;;;17.66;76.81;101687.41;5033217;28;46445;-79
2021/08/30 03:19:13;;;;;;;;;12.50;11.25;;;;;17.73;77.53;101693.25;5035831;28;45451;-80
2021/08/30 03:21:40;;;;;;;;;15.00;13.75;;;;;17.72;77.44;101691.53;5036598;28;45478;-79
2021/08/30 03:24:07;;;;;;;;;15.50;12.50;;;;;17.73;77.59;101688.81;5036591;28;45427;-80
2021/08/30 03:26:34;;;;;;;;;16.75;12.50;;;;;17.75;77.33;101691.41;5036372;28;46095;-80
2021/08/30 03:29:00;;;;;;;;;13.00;11.75;;;;;17.71;77.39;101685.34;5036807;28;45529;-80
2021/08/30 03:31:27;;;;;;;;;11.25;11.00;;;;;17.78;77.08;101688.53;5036813;28;45765;-80
2021/08/30 03:33:54;;;;;;;;;15.00;12.75;;;;;17.52;77.03;101642.16;5034498;28;45369;-80
2021/08/30 03:36:20;;;;;;;;;12.50;11.50;;;;;17.79;77.55;101692.06;5036029;28;45352;-80
2021/08/30 03:38:46;;;;;;;;;14.00;14.00;;;;;17.79;77.82;101684.94;5036870;28;45387;-81
2021/08/30 03:41:14;;;;;;;;;14.25;13.75;;;;;17.81;77.46;101679.53;5036228;28;45403;-80
2021/08/30 03:43:42;;;;;;;;;15.00;12.25;;;;;17.80;77.91;101684.00;5035848;28;45475;-80
2021/08/30 03:46:07;;;;;;;;;14.75;12.00;;;;;17.81;77.61;101680.41;5035728;28;46387;-80
2021/08/30 03:48:33;;;;;;;;;14.50;11.50;;;;;17.80;77.40;101686.66;5034451;28;45802;-80
2021/08/30 03:51:00;;;;;;;;;14.75;14.75;;;;;17.73;77.67;101675.50;5036086;28;45491;-80
2021/08/30 03:53:28;;;;;;;;;15.25;12.50;;;;;17.74;78.22;101685.19;5036390;28;45385;-80
2021/08/30 03:55:55;;;;;;;;;10.75;9.50;;;;;17.76;77.93;101673.63;5036481;28;46672;-80
2021/08/30 03:58:21;;;;;;;;;13.00;13.00;;;;;17.80;77.88;101680.47;5035651;28;45570;-80
2021/08/30 04:00:47;;;;;;;;;12.75;12.25;;;;;17.87;77.80;101688.00;5037235;28;45435;-80
2021/08/30 04:03:14;;;;;;;;;14.25;12.00;;;;;17.83;78.05;101683.81;5035391;28;45514;-80
2021/08/30 04:05:41;;;;;;;;;14.75;13.00;;;;;17.92;78.14;101691.25;5036411;28;45463;-80
2021/08/30 04:08:08;;;;;;;;;15.50;11.50;;;;;17.94;78.08;101685.84;5035892;28;45383;-80
2021/08/30 04:10:35;;;;;;;;;22.25;17.00;;;;;17.91;78.20;101678.91;5036292;28;45318;-80
2021/08/30 04:13:01;;;;;;;;;14.25;13.00;;;;;17.98;78.03;101680.25;5036075;28;45641;-79
2021/08/30 04:15:28;;;;;;;;;18.00;14.00;;;;;18.00;77.82;101689.00;5035338;28;46189;-80
2021/08/30 04:17:53;;;;;;;;;14.75;13.75;;;;;17.95;78.21;101675.09;5035045;28;45491;-80
2021/08/30 04:20:19;;;;;;;;;16.00;15.00;;;;;17.98;78.34;101669.63;5035620;28;45465;-80
2021/08/30 04:22:44;;;;;;;;;19.00;14.75;;;;;18.06;78.33;101686.91;5035891;28;45502;-80
2021/08/30 04:25:10;;;;;;;;;13.50;11.75;;;;;18.04;78.26;101675.53;5036326;28;46081;-80
2021/08/30 04:27:36;;;;;;;;;22.00;16.00;;;;;18.05;77.89;101674.56;5035872;28;45467;-80
2021/08/30 04:30:01;;;;;;;;;17.25;15.00;;;;;18.09;77.88;101686.75;5036192;28;45452;-80
2021/08/30 04:32:32;;;;;;;;;19.00;18.25;;;;;18.03;78.13;101671.16;5035052;28;47334;-80
2021/08/30 04:34:58;;;;;;;;;15.50;14.00;;;;;18.12;77.78;101686.56;5035211;28;46106;-79
2021/08/30 04:37:23;;;;;;;;;17.00;16.25;;;;;18.12;78.23;101686.56;5035983;28;45436;-80
2021/08/30 04:39:48;;;;;;;;;22.00;16.50;;;;;18.12;78.02;101684.78;5036010;28;50568;-80
2021/08/30 04:42:14;;;;;;;;;19.75;17.00;;;;;18.11;78.37;101679.50;5034739;28;45559;-80
2021/08/30 04:44:39;;;;;;;;;17.50;17.00;;;;;18.14;78.32;101682.88;5034853;28;46408;-80
2021/08/30 04:47:05;;;;;;;;;18.50;15.75;;;;;18.14;78.98;101684.66;5034881;28;45552;-80
2021/08/30 04:49:30;;;;;;;;;20.25;17.00;;;;;18.14;78.95;101692.66;5016543;28;45387;-80
2021/08/30 04:51:56;;;;;;;;;20.00;18.00;;;;;18.15;78.76;101687.22;5035820;28;45459;-80
2021/08/30 04:54:21;;;;;;;;;23.75;20.75;;;;;18.13;79.55;101691.78;5035187;28;46401;-80
2021/08/30 04:56:47;;;;;;;;;26.00;20.25;;;;;18.12;79.92;101698.06;5035142;28;45599;-81
2021/08/30 04:59:13;;;;;;;;;20.25;15.50;;;;;18.13;80.13;101693.59;5035324;28;45524;-81
2021/08/30 05:01:38;;;;;;;;;20.75;19.00;;;;;18.10;79.69;101691.13;5033928;28;45384;-80
2021/08/30 05:04:04;;;;;;;;;20.00;19.50;;;;;18.14;79.49;101705.94;5035376;28;52509;-80
2021/08/30 05:06:29;;;;;;;;;19.00;16.75;;;;;18.13;79.92;101701.59;5034423;28;51479;-79
2021/08/30 05:08:55;;;;;;;;;20.00;18.25;;;;;18.12;80.19;101694.56;5034964;28;45482;-79
2021/08/30 05:11:20;;;;;;;;;20.50;18.25;;;;;18.15;80.49;101705.00;5034409;28;45408;-79
2021/08/30 05:13:45;;;;;;;;;21.25;17.75;;;;;18.16;79.96;101706.72;5034059;28;45625;-79
2021/08/30 05:16:10;;;;;;;;;24.00;20.25;;;;;18.18;79.87;101707.50;5035097;28;45376;-79
2021/08/30 05:18:36;;;;;;;;;19.00;18.00;;;;;18.19;80.33;101710.06;5034349;28;55872;-79
2021/08/30 05:21:01;;;;;;;;;22.25;15.75;;;;;18.20;79.91;101697.59;5034401;28;45620;-79
2021/08/30 05:23:27;;;;;;;;;26.00;20.75;;;;;18.16;79.83;101698.72;5034426;28;45450;-79
2021/08/30 05:25:52;;;;;;;;;23.00;20.25;;;;;18.13;80.42;101697.13;5034855;28;45438;-79
2021/08/30 05:28:17;;;;;;;;;29.25;23.25;;;;;18.21;80.12;101701.97;5034039;28;53675;-79
2021/08/30 05:30:43;;;;;;;;;24.75;22.00;;;;;18.19;79.86;101698.56;5034300;28;45392;-79
2021/08/30 05:33:08;;;;;;;;;24.75;22.25;;;;;18.21;79.87;101707.28;5034583;28;45498;-79
2021/08/30 05:35:33;;;;;;;;;25.00;22.25;;;;;18.16;80.19;101698.72;5035014;28;45592;-79
2021/08/30 05:37:59;;;;;;;;;32.00;23.75;;;;;18.23;80.11;101705.41;5033933;28;45422;-79
2021/08/30 05:40:24;;;;;;;;;28.50;23.75;;;;;18.21;80.58;101701.97;5033975;28;45560;-79
2021/08/30 05:42:50;;;;;;;;;27.00;25.00;;;;;18.23;80.29;101705.41;5033859;28;46319;-79
2021/08/30 05:45:15;;;;;;;;;26.00;22.75;;;;;18.20;80.13;101705.59;5034309;28;45702;-77
2021/08/30 05:47:42;;;;;;;;;26.75;23.25;;;;;18.21;80.32;101696.66;5012986;28;45874;-79
2021/08/30 05:50:08;;;;;;;;;30.50;28.00;;;;;18.24;79.49;101701.81;5033809;28;45447;-79
2021/08/30 05:52:33;;;;;;;;;27.50;27.25;;;;;18.26;80.10;101705.22;5033165;28;46517;-78
2021/08/30 05:54:59;;;;;;;;;39.50;29.50;;;;;18.26;79.64;101705.22;5034853;28;45444;-78
2021/08/30 05:57:24;;;;;;;;;27.50;26.00;;;;;18.29;80.22;101706.84;5015382;28;45463;-79
2021/08/30 05:59:49;;;;;;;;;30.00;24.25;;;;;18.31;80.47;101712.91;5032449;28;50135;-78
2021/08/30 06:02:14;;;;;;;;;27.25;23.00;;;;;18.34;80.31;101718.06;5033772;28;46082;-78
2021/08/30 06:04:40;;;;;;;;;27.75;24.25;;;;;18.31;79.95;101713.78;5034221;28;45498;-78
2021/08/30 06:07:05;;;;;;;;;28.25;24.25;;;;;18.39;79.44;101721.31;5034233;28;45498;-78
2021/08/30 06:09:31;;;;;;;;;29.00;26.00;;;;;18.40;80.16;101718.56;5034183;28;45341;-79
2021/08/30 06:11:57;;;;;;;;;30.75;27.00;;;;;18.41;79.68;101714.94;5033113;28;46007;-79
2021/08/30 06:14:23;;;;;;;;;23.00;21.75;;;;;18.45;79.63;101718.28;5032931;28;45364;-79
2021/08/30 06:16:48;;;;;;;;;27.75;25.25;;;;;18.14;79.97;101669.56;5033789;28;45772;-81
2021/08/30 06:19:14;;;;;;;;;28.50;25.75;;;;;18.46;79.27;101718.19;5033653;28;45502;-79
2021/08/30 06:21:39;;;;;;;;;30.75;29.25;;;;;18.47;79.86;101725.22;5034160;28;45344;-79
2021/08/30 06:24:05;;;;;;;;;26.75;24.25;;;;;18.45;79.75;101720.94;5033960;28;45356;-77
2021/08/30 06:26:32;;;;;;;;;33.50;26.75;;;;;18.49;79.30;101733.97;5031431;28;45639;-78
2021/08/30 06:28:58;;;;;;;;;33.00;27.00;;;;;18.50;79.00;101740.16;5033425;28;45407;-78
2021/08/30 06:31:23;;;;;;;;;24.50;22.00;;;;;18.48;78.96;101739.41;5033931;28;45726;-78
2021/08/30 06:33:48;;;;;;;;;35.50;29.75;;;;;18.45;78.72;101740.44;5031947;28;48861;-78
2021/08/30 06:36:14;;;;;;;;;33.50;31.00;;;;;18.47;79.12;101735.84;5033376;28;45515;-78
2021/08/30 06:38:39;;;;;;;;;33.50;30.00;;;;;18.49;79.24;101738.44;5033160;28;45496;-78
2021/08/30 06:41:04;;;;;;;;;39.50;25.75;;;;;18.55;78.99;101740.72;5033644;28;46115;-78
2021/08/30 06:43:30;;;;;;;;;36.75;30.25;;;;;18.54;79.56;101724.88;5033060;28;45451;-78
2021/08/30 06:45:55;;;;;;;;;34.00;29.75;;;;;18.65;79.15;101738.38;5034063;28;45451;-78
2021/08/30 06:48:20;;;;;;;;;30.25;25.25;;;;;18.67;79.50;101732.00;5033630;28;45562;-78
2021/08/30 06:50:46;;;;;;;;;40.50;30.25;;;;;18.69;78.84;101737.28;5033341;28;45456;-78
2021/08/30 06:53:12;;;;;;;;;33.00;30.25;;;;;18.64;78.70;101726.88;5033235;28;45430;-78
2021/08/30 06:55:38;;;;;;;;;37.00;31.25;;;;;18.68;78.57;101730.22;5033233;28;45380;-78
2021/08/30 06:58:03;;;;;;;;;35.25;29.75;;;;;18.69;78.87;101727.47;5032449;28;45415;-76
2021/08/30 07:00:29;;;;;;;;;31.50;25.75;;;;;18.72;78.44;101737.06;5031713;28;46452;-76
2021/08/30 07:02:54;;;;;;;;;32.00;28.50;;;;;18.74;78.26;101732.50;5032306;28;45489;-76
2021/08/30 07:05:20;;;;;;;;;31.75;28.75;;;;;18.79;78.80;101746.38;5032463;28;45490;-76
2021/08/30 07:07:46;;;;;;;;;30.50;28.50;;;;;18.84;78.56;101738.97;5032700;28;45861;-76
2021/08/30 07:10:11;;;;;;;;;37.00;30.25;;;;;18.91;78.36;101745.66;5033732;28;45427;-76
2021/08/30 07:12:36;;;;;;;;;37.25;31.00;;;;;18.93;77.71;101746.41;5032147;28;45670;-76
2021/08/30 07:15:02;;;;;;;;;33.75;28.75;;;;;18.91;78.14;101735.00;5032652;28;45446;-77
2021/08/30 07:17:28;;;;;;;;;35.00;28.75;;;;;19.08;77.46;101746.41;5031144;28;45518;-77
2021/08/30 07:19:53;;;;;;;;;37.00;30.50;;;;;19.28;77.31;101756.66;5032434;28;45528;-77
2021/08/30 07:22:18;;;;;;;;;30.75;27.75;;;;;19.45;77.47;101755.59;5031696;28;45968;-77
2021/08/30 07:24:44;;;;;;;;;30.00;25.50;;;;;19.57;76.27;101760.13;5035198;28;45581;-77
2021/08/30 07:27:09;;;;;;;;;28.00;25.50;;;;;19.45;76.47;101744.94;5035333;28;45637;-76
2021/08/30 07:29:34;;;;;;;;;30.75;25.00;;;;;19.52;75.96;101760.44;5032776;28;45416;-77
2021/08/30 07:32:00;;;;;;;;;29.25;25.50;;;;;19.55;76.12;101756.72;5033106;28;45341;-76
2021/08/30 07:34:25;;;;;;;;;27.50;24.00;;;;;19.55;75.81;101764.72;5031593;28;46026;-77
2021/08/30 07:36:54;;;;;;;;;24.75;23.00;;;;;19.54;75.49;101760.34;5033467;28;45447;-77
2021/08/30 07:39:21;;;;;;;;;28.25;25.75;;;;;19.56;75.56;101763.75;5034646;28;46122;-77
2021/08/30 07:41:47;;;;;;;;;26.00;20.75;;;;;19.62;75.63;101770.53;5035295;28;45847;-76
2021/08/30 07:44:13;;;;;;;;;26.75;23.75;;;;;19.59;74.92;101760.94;5036434;28;45365;-77
2021/08/30 07:46:39;;;;;;;;;26.50;21.75;;;;;19.70;74.89;101770.91;5036239;28;45531;-76
2021/08/30 07:49:04;;;;;;;;;27.75;22.25;;;;;19.78;74.87;101781.91;5035897;28;45525;-76
2021/08/30 07:51:30;;;;;;;;;33.75;27.50;;;;;19.84;74.33;101778.88;5035813;28;47717;-77
2021/08/30 07:53:57;;;;;;;;;21.25;19.25;;;;;19.87;74.30;101781.31;5035815;28;45431;-77
2021/08/30 07:56:23;;;;;;;;;26.25;21.75;;;;;19.93;74.11;101777.41;5034666;28;45522;-76
2021/08/30 07:58:48;;;;;;;;;22.75;19.50;;;;;20.05;73.87;101776.59;5034734;28;46082;-74
2021/08/30 08:01:13;;;;;;;;;23.25;19.50;;;;;20.30;73.37;101781.13;5035936;28;45359;-76
2021/08/30 08:03:39;;;;;;;;;24.50;20.75;;;;;20.48;72.76;101785.28;5034444;28;47895;-75
2021/08/30 08:06:04;;;;;;;;;19.75;18.75;;;;;20.74;72.74;101777.31;5034451;28;45435;-76
2021/08/30 08:08:29;;;;;;;;;25.50;18.50;;;;;21.01;72.26;101785.19;5034024;28;45678;-77
2021/08/30 08:10:54;;;;;;;;;23.75;20.50;;;;;21.21;71.33;101781.13;5035938;28;45605;-76
2021/08/30 08:13:21;;;;;;;;;21.25;17.50;;;;;21.13;70.79;101770.09;5034910;28;54284;-77
2021/08/30 08:15:49;;;;;;;;;18.75;17.75;;;;;21.43;70.33;101789.34;5035846;28;45440;-76
2021/08/30 08:18:14;;;;;;;;;17.25;16.50;;;;;21.69;69.52;101786.59;5034399;28;46186;-77
2021/08/30 08:20:40;;;;;;;;;20.25;17.00;;;;;21.85;69.66;101795.22;5034742;28;57139;-77
2021/08/30 08:23:06;;;;;;;;;20.25;16.00;;;;;21.81;68.59;101759.78;5034980;28;45572;-77
2021/08/30 08:25:31;;;;;;;;;21.00;18.25;;;;;22.12;68.43;101793.19;5036038;28;45334;-77
2021/08/30 08:28:01;;;;;;;;;15.50;15.25;;;;;22.30;68.54;101792.78;5035609;28;45546;-77
2021/08/30 08:30:26;;;;;;;;;16.25;10.00;;;;;22.36;67.31;101795.84;5036878;28;45785;-77
2021/08/30 08:32:52;;;;;;;;;20.25;16.75;;;;;22.31;67.00;101784.63;5034757;28;45542;-77
2021/08/30 08:35:17;;;;;;;;;17.25;16.00;;;;;22.43;66.75;101801.59;5034318;28;45506;-77
2021/08/30 08:37:42;;;;;;;;;17.00;15.50;;;;;22.43;66.34;101795.38;5017206;28;48104;-76
2021/08/30 08:40:08;;;;;;;;;20.25;17.00;;;;;22.49;66.57;101790.41;5034592;28;45344;-75
2021/08/30 08:42:39;;;;;;;;;17.25;15.25;;;;;22.77;65.76;101794.50;5035007;28;45575;-77
2021/08/30 08:45:06;;;;;;;;;17.25;11.75;;;;;23.08;65.61;101802.84;5032403;28;45372;-78
2021/08/30 08:47:38;;;;;;;;;17.50;14.50;;;;;23.30;64.33;101813.59;5034350;28;45390;-76
2021/08/30 08:50:06;;;;;;;;;12.00;12.00;;;;;23.41;63.72;101802.00;5033181;28;45750;-76
2021/08/30 08:52:33;;;;;;;;;16.25;13.50;;;;;23.29;64.08;101798.47;5033741;28;45439;-77
2021/08/30 08:54:59;;;;;;;;;18.50;14.50;;;;;23.37;63.34;101803.22;5035674;28;45710;-76
2021/08/30 08:57:24;;;;;;;;;18.25;14.00;;;;;23.52;63.27;101801.97;5036010;28;46276;-75
2021/08/30 09:00:19;;;;;;;;;17.00;17.00;;;;;23.76;63.25;101804.53;5029264;28;45561;-76
2021/08/30 09:02:49;;;;;;;;;13.25;12.50;;;;;23.76;62.40;101799.19;5014986;28;45437;-75
2021/08/30 09:05:25;;;;;;;;;17.75;15.25;;;;;23.78;61.66;101802.56;5028978;28;45505;-76
2021/08/30 09:07:51;;;;;;;;;16.75;14.50;;;;;23.83;62.05;101788.78;5026041;28;46389;-75
2021/08/30 09:10:21;;;;;;;;;21.00;18.25;;;;;23.95;61.05;101791.28;5043086;28;45637;-79
2021/08/30 09:12:48;;;;;;;;;18.00;16.00;;;;;23.83;60.48;101778.03;5031570;28;45698;-80
2021/08/30 09:15:23;;;;;;;;;15.50;13.50;;;;;23.77;60.54;101798.19;5033766;28;45653;-77
2021/08/30 09:17:56;;;;;;;;;17.75;15.75;;;;;23.46;60.58;101781.00;5035229;28;47096;-76
2021/08/30 09:20:24;;;;;;;;;17.75;14.00;;;;;23.25;60.64;101805.06;5027692;28;45833;-76
2021/08/30 09:22:50;;;;;;;;;17.75;14.00;;;;;23.05;60.59;101814.66;5028025;28;45484;-77
2021/08/30 09:25:16;;;;;;;;;15.25;12.50;;;;;23.05;60.79;101805.78;5031432;28;45888;-76
2021/08/30 09:27:47;;;;;;;;;15.50;13.50;;;;;23.23;60.83;101803.44;5032580;28;45439;-76
2021/08/30 09:30:13;;;;;;;;;19.75;16.25;;;;;23.46;60.25;101809.69;5032137;28;45509;-76
2021/08/30 09:32:45;;;;;;;;;12.50;12.50;;;;;23.60;60.54;101807.59;5029920;28;45530;-77
2021/08/30 09:35:10;;;;;;;;;15.75;14.25;;;;;23.73;60.41;101820.88;5031665;28;45538;-76
2021/08/30 09:37:44;;;;;;;;;13.75;11.00;;;;;23.75;59.09;101818.06;5034674;28;45458;-76
2021/08/30 09:40:13;;;;;;;;;14.25;12.75;;;;;23.65;59.80;101824.22;5035236;28;45503;-77
2021/08/30 09:42:48;;;;;;;;;12.25;11.75;;;;;23.44;59.22;101824.06;5036676;28;45386;-78
2021/08/30 09:45:16;;;;;;;;;13.50;13.50;;;;;23.23;59.81;101819.53;5036990;28;45475;-78
2021/08/30 09:47:48;;;;;;;;;17.50;13.25;;;;;23.00;59.92;101821.38;5036231;28;46327;-77
2021/08/30 09:50:13;;;;;;;;;17.50;12.75;;;;;22.80;60.36;101822.88;5039084;28;45454;-77
2021/08/30 09:52:38;;;;;;;;;14.25;13.25;;;;;22.70;60.26;101814.69;5036302;28;47062;-77
2021/08/30 09:55:04;;;;;;;;;17.50;14.75;;;;;22.78;60.31;101819.47;5034596;28;47902;-78
2021/08/30 09:57:30;;;;;;;;;13.50;11.50;;;;;22.64;60.12;101805.28;5043670;28;46192;-77
2021/08/30 09:59:56;;;;;;;;;14.50;13.75;;;;;22.66;60.17;101815.91;5041730;28;45275;-78
2021/08/30 10:02:28;;;;;;;;;15.00;10.75;;;;;22.61;60.26;101804.69;5042117;28;45597;-79
2021/08/30 10:04:54;;;;;;;;;16.50;12.00;;;;;22.57;60.49;101813.94;5020823;28;45748;-80
2021/08/30 10:07:20;;;;;;;;;15.75;14.50;;;;;22.44;60.64;101800.59;5034969;28;46132;-79
2021/08/30 10:09:47;;;;;;;;;12.25;11.75;;;;;22.35;60.29;101812.91;5036645;28;45472;-77
2021/08/30 10:12:12;;;;;;;;;12.50;10.75;;;;;22.29;60.70;101808.00;5035172;28;45438;-78
2021/08/30 10:14:38;;;;;;;;;16.50;13.75;;;;;22.25;60.71;101817.22;5034037;28;45339;-79
2021/08/30 10:17:04;;;;;;;;;13.75;13.75;;;;;22.22;60.73;101797.84;5034191;28;45394;-79
2021/08/30 10:19:33;;;;;;;;;15.00;12.50;;;;;22.25;60.94;101809.19;5032750;28;45443;-78
2021/08/30 10:22:00;;;;;;;;;14.00;12.25;;;;;22.36;60.46;101803.03;5033834;28;45379;-78
2021/08/30 10:24:28;;;;;;;;;15.75;13.25;;;;;22.45;60.90;101810.38;5033345;28;45518;-79
2021/08/30 10:27:02;;;;;;;;;12.75;10.75;;;;;22.57;60.22;101805.91;5032756;28;46722;-79
2021/08/30 10:29:35;;;;;;;;;16.00;13.75;;;;;22.69;60.29;101796.06;5033792;28;45848;-80
2021/08/30 10:32:00;;;;;;;;;14.75;12.75;;;;;22.89;60.10;101804.28;5034388;28;45488;-78
2021/08/30 10:34:32;;;;;;;;;15.75;15.25;;;;;22.97;59.65;101795.66;5034785;28;45547;-78
2021/08/30 10:36:58;;;;;;;;;13.50;13.50;;;;;23.05;59.71;101808.44;5032266;28;45481;-79
2021/08/30 10:39:39;;;;;;;;;14.25;13.50;;;;;23.02;60.12;101812.25;5033181;28;45863;-79
2021/08/30 10:42:05;;;;;;;;;16.50;11.00;;;;;22.89;59.11;101803.44;5033216;28;45592;-78
2021/08/30 10:44:32;;;;;;;;;17.00;14.00;;;;;23.00;59.63;101807.97;5033310;28;45407;-86
2021/08/30 10:47:00;;;;;;;;;14.75;13.00;;;;;23.10;59.35;101804.44;5032186;28;46519;-79
2021/08/30 10:49:28;;;;;;;;;14.75;12.00;;;;;23.30;59.02;101815.41;5032551;28;45853;-81
2021/08/30 10:52:11;;;;;;;;;16.25;14.00;;;;;23.47;59.35;101801.50;5030359;28;45400;-78
2021/08/30 10:54:47;;;;;;;;;15.75;13.75;;;;;23.57;58.63;101805.16;5032092;28;45422;-79
2021/08/30 10:57:14;;;;;;;;;12.50;11.50;;;;;23.53;58.02;101784.91;5032193;28;46997;-79
2021/08/30 10:59:42;;;;;;;;;17.50;15.50;;;;;23.72;57.97;101812.97;5028034;28;45391;-80
2021/08/30 11:02:07;;;;;;;;;15.50;12.25;;;;;23.64;57.44;101805.53;5028707;28;45835;-79
2021/08/30 11:04:37;;;;;;;;;11.25;10.75;;;;;23.66;57.43;101815.16;5028499;28;46019;-77
2021/08/30 11:07:06;;;;;;;;;12.25;10.25;;;;;23.66;57.16;101801.75;5030292;28;45482;-79
2021/08/30 11:09:32;;;;;;;;;12.75;12.00;;;;;23.66;56.85;101815.16;5027732;28;45632;-81
2021/08/30 11:12:11;;;;;;;;;12.50;12.00;;;;;23.64;57.04;101816.25;5027773;28;45605;-78
2021/08/30 11:14:37;;;;;;;;;14.50;13.00;;;;;23.67;57.32;101814.19;5031105;28;45404;-77